Time;durP1;ratioP1;P1;durP2;ratioP2;P2;SDS_P1;SDS_P2;PMS_P1;PMS_P2;Temp;Humidity;BMP_temperature;BMP_pressure;BME280_temperature;BME280_humidity;BME280_pressure;Samples;Min_cycle;Max_cycle;Signal;HPM_P1;HPM_P2
2022/07/12 00:00:48;;;;;;;6.68;3.10;;;11.30;99.90;;;;;;5075952;28;20090;-80
2022/07/12 00:03:15;;;;;;;5.00;2.90;;;11.30;99.90;;;;;;5057772;28;20147;-79
2022/07/12 00:05:43;;;;;;;6.28;2.85;;;11.30;99.90;;;;;;5074511;28;20102;-79
2022/07/12 00:08:11;;;;;;;7.63;3.10;;;11.30;99.90;;;;;;5075757;28;20040;-79
2022/07/12 00:10:39;;;;;;;6.38;2.83;;;11.30;99.90;;;;;;5051679;28;20040;-79
2022/07/12 00:13:06;;;;;;;6.05;3.17;;;11.40;99.90;;;;;;5072478;28;20100;-79
2022/07/12 00:15:33;;;;;;;7.10;3.15;;;11.30;99.90;;;;;;5081979;28;20067;-80
2022/07/12 00:18:00;;;;;;;4.30;2.60;;;11.20;99.90;;;;;;5077321;28;20045;-79
2022/07/12 00:20:28;;;;;;;5.03;2.95;;;11.20;99.90;;;;;;5050997;28;20404;-80
2022/07/12 00:22:56;;;;;;;5.07;2.72;;;11.20;99.90;;;;;;5049275;28;20121;-79
2022/07/12 00:25:25;;;;;;;4.07;2.53;;;11.20;99.90;;;;;;5060057;28;20399;-79
2022/07/12 00:27:53;;;;;;;6.78;3.00;;;11.20;99.90;;;;;;5061239;28;20037;-80
2022/07/12 00:30:20;;;;;;;5.82;2.83;;;11.10;99.90;;;;;;5063043;28;20049;-80
2022/07/12 00:32:47;;;;;;;6.43;3.20;;;11.20;99.90;;;;;;5046303;28;20493;-78
2022/07/12 00:35:15;;;;;;;5.35;3.03;;;11.10;99.90;;;;;;5040169;28;20053;-79
2022/07/12 00:37:43;;;;;;;5.25;2.80;;;11.10;99.90;;;;;;5067988;28;20036;-81
2022/07/12 00:40:12;;;;;;;5.15;2.83;;;11.10;99.90;;;;;;5076449;28;20020;-79
2022/07/12 00:42:41;;;;;;;6.03;2.95;;;11.10;99.90;;;;;;5096576;28;20045;-80
2022/07/12 00:45:09;;;;;;;3.78;2.50;;;11.10;99.90;;;;;;5079113;28;20119;-79
2022/07/12 00:47:40;;;;;;;5.32;2.83;;;11.00;99.90;;;;;;5079505;28;20051;-79
2022/07/12 00:50:09;;;;;;;5.93;2.40;;;11.10;99.90;;;;;;5070641;28;20120;-79
2022/07/12 00:52:37;;;;;;;4.97;2.80;;;11.10;99.90;;;;;;5082164;28;20048;-77
2022/07/12 00:55:05;;;;;;;4.72;2.80;;;11.20;99.90;;;;;;5070989;28;20049;-78
2022/07/12 00:57:33;;;;;;;4.70;2.45;;;11.20;99.90;;;;;;5077398;28;20063;-79
2022/07/12 01:00:05;;;;;;;6.63;2.70;;;11.20;99.90;;;;;;5042082;28;20056;-80
2022/07/12 01:02:32;;;;;;;5.40;2.97;;;11.20;99.90;;;;;;5054766;28;20056;-79
2022/07/12 01:05:00;;;;;;;4.57;2.55;;;11.20;99.90;;;;;;5055682;28;20049;-80
2022/07/12 01:07:28;;;;;;;7.32;2.80;;;11.20;99.90;;;;;;5072591;28;20442;-78
2022/07/12 01:09:55;;;;;;;6.63;2.80;;;11.10;99.90;;;;;;5068242;28;20115;-78
2022/07/12 01:12:23;;;;;;;4.47;2.80;;;11.00;99.90;;;;;;5080281;28;20070;-77
2022/07/12 01:14:51;;;;;;;3.58;2.47;;;11.00;99.90;;;;;;5095631;28;20070;-78
2022/07/12 01:17:21;;;;;;;6.00;2.90;;;11.00;99.90;;;;;;5070397;28;20053;-79
2022/07/12 01:19:49;;;;;;;5.22;2.60;;;11.00;99.90;;;;;;5075177;28;20024;-78
2022/07/12 01:22:18;;;;;;;7.68;4.07;;;11.00;99.90;;;;;;5075939;28;20094;-78
2022/07/12 01:24:47;;;;;;;6.40;2.70;;;10.90;99.90;;;;;;5076908;28;20049;-81
2022/07/12 01:27:14;;;;;;;7.70;3.05;;;10.90;99.90;;;;;;5078164;28;20044;-81
2022/07/12 01:29:42;;;;;;;4.10;2.20;;;10.90;99.90;;;;;;5078776;28;20044;-78
2022/07/12 01:34:52;;;;;;;6.07;2.50;;;10.90;99.90;;;;;;5037391;28;20045;-78
2022/07/12 01:37:20;;;;;;;5.00;2.92;;;11.00;99.90;;;;;;5041345;28;20051;-80
2022/07/12 01:39:50;;;;;;;5.47;2.63;;;10.90;99.90;;;;;;5048446;28;20048;-78
2022/07/12 01:42:18;;;;;;;5.18;2.50;;;11.00;99.90;;;;;;5056046;28;20111;-78
2022/07/12 01:44:45;;;;;;;8.90;2.72;;;11.00;99.90;;;;;;5038518;28;20053;-78
2022/07/12 01:47:13;;;;;;;5.28;2.30;;;11.00;99.90;;;;;;5056138;28;20387;-79
2022/07/12 01:49:40;;;;;;;6.03;2.65;;;11.00;99.90;;;;;;5038985;28;20095;-81
2022/07/12 01:52:08;;;;;;;5.10;2.72;;;10.90;99.90;;;;;;5057293;28;20566;-80
2022/07/12 01:54:35;;;;;;;5.80;2.50;;;10.90;99.90;;;;;;5056928;28;20187;-80
2022/07/12 01:57:04;;;;;;;5.22;2.80;;;10.90;99.90;;;;;;5057186;28;20041;-81
2022/07/12 01:59:32;;;;;;;5.15;2.80;;;10.90;99.90;;;;;;5057401;28;20045;-79
2022/07/12 02:02:01;;;;;;;5.93;2.85;;;11.00;99.90;;;;;;5079740;28;20016;-80
2022/07/12 02:04:29;;;;;;;4.25;2.50;;;11.00;99.90;;;;;;5082510;28;20020;-79
2022/07/12 02:06:57;;;;;;;6.90;2.72;;;11.10;99.90;;;;;;5099838;28;20040;-79
2022/07/12 02:09:24;;;;;;;6.40;2.60;;;11.20;99.90;;;;;;5100207;28;20017;-80
2022/07/12 02:11:52;;;;;;;6.40;2.65;;;11.20;99.90;;;;;;5098383;28;20031;-79
2022/07/12 02:14:20;;;;;;;4.90;2.63;;;11.10;99.90;;;;;;5057331;28;20108;-78
2022/07/12 02:16:48;;;;;;;4.78;2.78;;;11.10;99.90;;;;;;5045681;28;20044;-80
2022/07/12 02:19:16;;;;;;;9.23;3.25;;;11.10;99.90;;;;;;5058872;28;20086;-78
2022/07/12 02:21:43;;;;;;;8.88;2.92;;;11.00;99.90;;;;;;5075689;28;20592;-78
2022/07/12 02:24:13;;;;;;;5.53;2.22;;;11.00;99.90;;;;;;5057149;28;20049;-78
2022/07/12 02:26:40;;;;;;;4.68;2.60;;;11.00;99.90;;;;;;5075108;28;20040;-78
2022/07/12 02:29:07;;;;;;;4.50;2.40;;;10.90;99.90;;;;;;5074575;28;20028;-78
2022/07/12 02:31:36;;;;;;;3.63;2.33;;;10.80;99.90;;;;;;5053833;28;20078;-78
2022/07/12 02:34:03;;;;;;;4.28;2.45;;;10.60;99.90;;;;;;5074572;28;20080;-78
2022/07/12 02:36:31;;;;;;;6.65;2.55;;;10.50;99.90;;;;;;5057967;28;20064;-77
2022/07/12 02:39:02;;;;;;;3.75;2.20;;;10.40;99.90;;;;;;5060315;28;20487;-79
2022/07/12 02:41:29;;;;;;;10.32;3.03;;;10.40;99.90;;;;;;5087260;28;20087;-78
2022/07/12 02:43:57;;;;;;;5.38;2.78;;;10.50;99.90;;;;;;5074501;28;20050;-78
2022/07/12 02:46:24;;;;;;;5.40;2.75;;;10.40;99.90;;;;;;5055278;28;20048;-78
2022/07/12 02:48:53;;;;;;;4.80;2.50;;;10.50;99.90;;;;;;5056059;28;20040;-78
2022/07/12 02:51:20;;;;;;;5.03;2.80;;;10.50;99.90;;;;;;5066652;28;20052;-77
2022/07/12 02:53:48;;;;;;;6.32;3.10;;;10.50;99.90;;;;;;5062168;28;20484;-77
2022/07/12 02:56:15;;;;;;;6.63;3.05;;;10.50;99.90;;;;;;5036038;28;20052;-78
2022/07/12 02:58:42;;;;;;;4.55;2.65;;;10.60;99.90;;;;;;5048988;28;20041;-78
2022/07/12 03:01:10;;;;;;;4.13;2.72;;;10.60;99.90;;;;;;5056126;28;20504;-78
2022/07/12 03:03:38;;;;;;;6.30;3.10;;;10.60;99.90;;;;;;5073876;28;20048;-78
2022/07/12 03:06:07;;;;;;;6.13;2.95;;;10.50;99.90;;;;;;5074530;28;20401;-78
2022/07/12 03:08:34;;;;;;;6.57;3.00;;;10.50;99.90;;;;;;5072030;28;20036;-78
2022/07/12 03:11:01;;;;;;;4.18;2.60;;;10.50;99.90;;;;;;5036197;28;20071;-78
2022/07/12 03:13:28;;;;;;;5.32;2.65;;;10.50;99.90;;;;;;5065205;28;20074;-78
2022/07/12 03:15:56;;;;;;;6.38;2.50;;;10.50;99.90;;;;;;5076136;28;20052;-77
2022/07/12 03:18:23;;;;;;;5.03;2.63;;;10.40;99.90;;;;;;5065356;28;20491;-78
2022/07/12 03:20:50;;;;;;;8.52;3.55;;;10.40;99.90;;;;;;5036149;28;20045;-77
2022/07/12 03:23:19;;;;;;;7.03;3.33;;;10.20;99.90;;;;;;5045089;28;20117;-79
2022/07/12 03:25:46;;;;;;;5.68;3.58;;;10.20;99.90;;;;;;5064916;28;20044;-79
2022/07/12 03:28:14;;;;;;;6.53;2.92;;;10.30;99.90;;;;;;5053766;28;20139;-78
2022/07/12 03:30:41;;;;;;;7.15;3.17;;;10.30;99.90;;;;;;5056950;28;20033;-78
2022/07/12 03:33:08;;;;;;;5.30;2.90;;;10.40;99.90;;;;;;5064174;28;20040;-78
2022/07/12 03:35:36;;;;;;;7.53;3.55;;;10.50;99.90;;;;;;5035798;28;20414;-78
2022/07/12 03:38:04;;;;;;;6.10;2.55;;;10.50;99.90;;;;;;5053748;28;20047;-79
2022/07/12 03:40:34;;;;;;;4.18;2.70;;;10.50;99.90;;;;;;5063906;28;20514;-78
2022/07/12 03:43:02;;;;;;;4.85;3.03;;;10.50;99.90;;;;;;5046751;28;20562;-78
2022/07/12 03:45:29;;;;;;;8.13;3.35;;;10.60;99.90;;;;;;5064414;28;20505;-78
2022/07/12 03:47:56;;;;;;;8.10;3.60;;;10.60;99.90;;;;;;5064780;28;20055;-78
2022/07/12 03:50:23;;;;;;;6.78;2.72;;;10.60;99.90;;;;;;5074806;28;20036;-78
2022/07/12 03:52:51;;;;;;;5.72;2.97;;;10.70;99.90;;;;;;5075355;28;20051;-78
2022/07/12 03:55:18;;;;;;;5.40;3.60;;;10.80;99.90;;;;;;5081106;28;20134;-78
2022/07/12 03:57:47;;;;;;;9.48;4.00;;;10.80;99.90;;;;;;5073997;28;20033;-78
2022/07/12 04:00:15;;;;;;;11.40;4.20;;;11.00;99.90;;;;;;5073802;28;20536;-78
2022/07/12 04:02:43;;;;;;;7.80;3.53;;;11.40;99.90;;;;;;5073761;28;20102;-79
2022/07/12 04:05:11;;;;;;;3.88;2.75;;;12.50;99.90;;;;;;5074901;28;20041;-77
2022/07/12 04:07:40;;;;;;;3.90;2.53;;;13.50;99.90;;;;;;5075998;28;20052;-79
2022/07/12 04:10:09;;;;;;;7.10;2.90;;;14.80;99.90;;;;;;5094201;28;20067;-78
2022/07/12 04:12:37;;;;;;;17.55;3.65;;;16.10;99.90;;;;;;5089892;28;20549;-76
2022/07/12 04:15:07;;;;;;;6.80;2.47;;;16.80;99.90;;;;;;5064453;28;20439;-76
2022/07/12 04:17:34;;;;;;;4.82;2.80;;;17.60;99.90;;;;;;5057097;28;20048;-76
2022/07/12 04:20:01;;;;;;;3.42;1.95;;;18.20;99.90;;;;;;5090847;28;20114;-75
2022/07/12 04:22:29;;;;;;;4.75;2.20;;;19.00;99.90;;;;;;5094603;28;20098;-75
2022/07/12 04:24:56;;;;;;;6.47;2.33;;;19.70;99.90;;;;;;5073074;28;20044;-76
2022/07/12 04:27:26;;;;;;;5.18;2.20;;;20.20;99.90;;;;;;5093795;28;20101;-77
2022/07/12 04:29:53;;;;;;;7.15;2.33;;;20.00;99.90;;;;;;5066451;28;20090;-76
2022/07/12 04:32:22;;;;;;;5.32;2.05;;;19.90;99.90;;;;;;5075846;28;20048;-76
2022/07/12 04:34:49;;;;;;;6.35;1.95;;;20.10;99.90;;;;;;5075491;28;20048;-76
2022/07/12 04:37:16;;;;;;;5.68;2.17;;;20.20;99.90;;;;;;5093026;28;20046;-75
2022/07/12 04:39:44;;;;;;;6.40;2.72;;;20.30;99.90;;;;;;5089928;28;20040;-76
2022/07/12 04:42:11;;;;;;;8.55;2.72;;;20.60;99.90;;;;;;5091085;28;20067;-77
2022/07/12 04:44:38;;;;;;;5.03;2.40;;;20.60;99.90;;;;;;5079075;28;20051;-76
2022/07/12 04:47:06;;;;;;;4.53;2.38;;;21.10;99.90;;;;;;5073611;28;20048;-76
2022/07/12 04:49:34;;;;;;;7.28;3.13;;;21.20;99.90;;;;;;5068038;28;20522;-77
2022/07/12 04:52:02;;;;;;;6.22;2.40;;;21.70;99.90;;;;;;5067327;28;20063;-76
2022/07/12 04:54:29;;;;;;;5.35;2.60;;;22.30;99.90;;;;;;5073341;28;20036;-75
2022/07/12 04:56:56;;;;;;;6.63;2.55;;;22.40;99.90;;;;;;5096012;28;20056;-76
2022/07/12 04:59:25;;;;;;;8.68;2.97;;;21.40;99.90;;;;;;5099844;28;20063;-75
2022/07/12 05:01:52;;;;;;;10.43;6.18;;;20.30;99.90;;;;;;5092021;28;20032;-76
2022/07/12 05:04:19;;;;;;;6.28;2.40;;;20.50;99.90;;;;;;5079547;28;20491;-77
2022/07/12 05:06:48;;;;;;;6.20;2.08;;;21.30;99.90;;;;;;5079172;28;20037;-77
2022/07/12 05:09:15;;;;;;;7.28;2.15;;;22.40;99.90;;;;;;5084307;28;20044;-78
2022/07/12 05:11:43;;;;;;;5.65;2.53;;;23.20;99.30;;;;;;5080182;28;20087;-76
2022/07/12 05:14:10;;;;;;;6.00;2.42;;;23.70;97.40;;;;;;5077030;28;20036;-78
2022/07/12 05:16:37;;;;;;;5.15;2.40;;;24.00;96.40;;;;;;5078260;28;20048;-75
2022/07/12 05:19:05;;;;;;;5.10;2.47;;;24.40;95.20;;;;;;5075910;28;20071;-77
2022/07/12 05:21:34;;;;;;;6.80;2.55;;;24.30;93.90;;;;;;5071317;28;20098;-77
2022/07/12 05:24:03;;;;;;;4.00;2.53;;;24.40;93.80;;;;;;5077100;28;20048;-78
2022/07/12 05:26:30;;;;;;;7.30;2.45;;;24.00;93.10;;;;;;5079210;28;20052;-77
2022/07/12 05:28:58;;;;;;;6.45;2.70;;;23.60;94.10;;;;;;5069691;28;20045;-77
2022/07/12 05:31:26;;;;;;;6.90;2.58;;;23.10;94.10;;;;;;5083243;28;20086;-77
2022/07/12 05:33:53;;;;;;;6.95;2.47;;;22.60;94.90;;;;;;5080771;28;20419;-77
2022/07/12 05:36:21;;;;;;;6.65;2.50;;;22.10;95.90;;;;;;5080324;28;20056;-77
2022/07/12 05:38:48;;;;;;;7.38;3.17;;;21.20;97.30;;;;;;5084410;28;20066;-77
2022/07/12 05:41:17;;;;;;;6.57;2.88;;;21.10;98.10;;;;;;5081427;28;20044;-77
2022/07/12 05:43:45;;;;;;;11.13;7.53;;;21.20;98.40;;;;;;5101938;28;20036;-78
2022/07/12 05:46:13;;;;;;;8.57;3.20;;;21.80;98.80;;;;;;5099982;28;20074;-76
2022/07/12 05:48:41;;;;;;;12.10;3.50;;;22.40;97.90;;;;;;5097069;28;20036;-75
2022/07/12 05:54:05;;;;;;;7.45;2.80;;;22.80;96.90;;;;;;5032048;28;20045;-76
2022/07/12 05:56:34;;;;;;;8.13;3.30;;;22.70;96.90;;;;;;5077397;28;20400;-76
2022/07/12 05:59:01;;;;;;;8.85;3.15;;;22.60;96.70;;;;;;5086882;28;20435;-77
2022/07/12 06:01:28;;;;;;;7.53;3.10;;;21.90;97.70;;;;;;5094614;28;20490;-77
2022/07/12 06:03:55;;;;;;;9.02;3.72;;;20.90;99.30;;;;;;5091935;28;20040;-77
2022/07/12 06:06:23;;;;;;;10.40;3.55;;;20.40;99.90;;;;;;5087288;28;20422;-76
2022/07/12 06:08:50;;;;;;;8.30;3.05;;;20.10;99.90;;;;;;5096047;28;20067;-74
2022/07/12 06:11:18;;;;;;;9.30;3.17;;;20.00;99.90;;;;;;5078529;28;20591;-76
2022/07/12 06:13:47;;;;;;;9.23;3.28;;;19.90;99.90;;;;;;5097305;28;20040;-75
2022/07/12 06:16:15;;;;;;;9.40;3.38;;;20.00;99.90;;;;;;5095854;28;20043;-74
2022/07/12 06:18:42;;;;;;;6.90;3.47;;;20.30;99.90;;;;;;5093541;28;20082;-75
2022/07/12 06:21:10;;;;;;;8.80;3.60;;;20.60;99.90;;;;;;5097462;28;20036;-75
2022/07/12 06:23:37;;;;;;;8.60;3.42;;;20.70;99.90;;;;;;5094433;28;20043;-75
2022/07/12 06:26:04;;;;;;;6.72;3.22;;;20.90;99.90;;;;;;5076817;28;20044;-75
2022/07/12 06:28:31;;;;;;;9.10;3.67;;;20.70;99.90;;;;;;5095371;28;20093;-75
2022/07/12 06:31:01;;;;;;;13.65;5.07;;;20.60;99.90;;;;;;5095102;28;20040;-75
2022/07/12 06:33:29;;;;;;;9.38;2.95;;;21.10;99.90;;;;;;5093938;28;20040;-74
2022/07/12 06:35:56;;;;;;;7.13;3.25;;;21.10;99.00;;;;;;5095728;28;20098;-75
2022/07/12 06:38:23;;;;;;;6.38;3.25;;;21.10;99.10;;;;;;5086477;28;20094;-76
2022/07/12 06:40:51;;;;;;;5.72;2.78;;;21.30;98.90;;;;;;5076022;28;20037;-74
2022/07/12 06:43:18;;;;;;;10.25;3.88;;;21.60;98.80;;;;;;5085305;28;20108;-75
2022/07/12 06:45:45;;;;;;;10.32;3.38;;;21.70;98.40;;;;;;5088663;28;20070;-75
2022/07/12 06:48:14;;;;;;;9.18;3.30;;;21.90;98.00;;;;;;5078159;28;20036;-76
2022/07/12 06:50:41;;;;;;;86.70;61.55;;;22.30;96.90;;;;;;5077073;28;20040;-74
2022/07/12 06:53:09;;;;;;;27.02;17.63;;;22.20;96.40;;;;;;5068665;28;20138;-75
2022/07/12 06:55:36;;;;;;;14.63;8.73;;;22.20;96.50;;;;;;5085621;28;20079;-77
2022/07/12 06:58:04;;;;;;;11.50;5.45;;;22.30;96.00;;;;;;5085700;28;20135;-75
2022/07/12 07:00:31;;;;;;;15.13;7.35;;;22.40;95.90;;;;;;5088063;28;20087;-74
2022/07/12 07:02:59;;;;;;;15.13;7.63;;;22.60;95.70;;;;;;5095362;28;20093;-76
2022/07/12 07:05:30;;;;;;;13.25;6.20;;;22.30;95.70;;;;;;5087171;28;20435;-75
2022/07/12 07:07:57;;;;;;;16.77;6.70;;;22.60;95.70;;;;;;5064877;28;20507;-75
2022/07/12 07:10:24;;;;;;;13.40;7.13;;;22.70;95.60;;;;;;5094083;28;20051;-75
2022/07/12 07:12:51;;;;;;;17.38;6.68;;;22.80;95.40;;;;;;5089343;28;20491;-74
2022/07/12 07:15:19;;;;;;;17.65;5.15;;;22.90;95.30;;;;;;5074900;28;20036;-75
2022/07/12 07:17:47;;;;;;;14.85;6.28;;;22.90;94.30;;;;;;5065624;28;20048;-75
2022/07/12 07:20:14;;;;;;;21.58;6.45;;;22.90;94.20;;;;;;5081303;28;20036;-76
2022/07/12 07:22:43;;;;;;;12.15;5.72;;;22.70;94.30;;;;;;5091604;28;20329;-74
2022/07/12 07:25:11;;;;;;;16.27;6.63;;;22.40;93.80;;;;;;5095003;28;20099;-76
2022/07/12 07:27:38;;;;;;;14.82;5.97;;;22.30;94.20;;;;;;5088576;28;20560;-75
2022/07/12 07:32:52;;;;;;;13.50;4.57;;;22.50;94.40;;;;;;5089061;28;20397;-75
2022/07/12 07:35:19;;;;;;;10.50;5.22;;;22.50;94.30;;;;;;5057872;28;20110;-75
2022/07/12 07:37:48;;;;;;;14.30;6.18;;;22.40;94.20;;;;;;5077934;28;20044;-74
2022/07/12 07:40:15;;;;;;;16.02;5.55;;;22.70;94.40;;;;;;5080275;28;20064;-74
2022/07/12 07:42:42;;;;;;;11.55;4.15;;;23.00;93.80;;;;;;5090960;28;20084;-74
2022/07/12 07:45:10;;;;;;;10.95;5.55;;;23.30;92.90;;;;;;5101118;28;20048;-75
2022/07/12 07:47:44;;;;;;;14.93;6.70;;;23.50;92.30;;;;;;5087802;28;20101;-75
2022/07/12 07:50:12;;;;;;;9.90;4.97;;;23.50;91.50;;;;;;5069276;28;20097;-74
2022/07/12 07:52:39;;;;;;;10.23;5.60;;;23.50;91.50;;;;;;5095311;28;20040;-74
2022/07/12 07:55:12;;;;;;;13.10;4.18;;;23.70;91.00;;;;;;5064056;28;20491;-74
2022/07/12 07:57:40;;;;;;;16.27;4.43;;;23.60;90.80;;;;;;5076198;28;20044;-75
2022/07/12 08:00:08;;;;;;;8.00;3.60;;;23.80;90.80;;;;;;5059776;28;20106;-75
2022/07/12 08:02:41;;;;;;;10.85;3.65;;;24.00;90.10;;;;;;5096547;28;20410;-75
2022/07/12 08:05:09;;;;;;;9.98;4.07;;;24.00;90.00;;;;;;5079695;28;20044;-75
2022/07/12 08:07:36;;;;;;;13.05;3.63;;;23.90;88.60;;;;;;5082613;28;20049;-74
2022/07/12 08:10:03;;;;;;;7.85;2.97;;;23.60;88.70;;;;;;5076277;28;20427;-74
2022/07/12 08:12:32;;;;;;;7.88;3.83;;;23.60;87.20;;;;;;5094825;28;20055;-75
2022/07/12 08:14:59;;;;;;;8.00;2.80;;;23.80;87.10;;;;;;5095606;28;20040;-74
2022/07/12 08:17:27;;;;;;;7.75;2.83;;;24.10;84.70;;;;;;5061354;28;20052;-74
2022/07/12 08:19:54;;;;;;;11.15;4.60;;;24.30;84.60;;;;;;5091798;28;20115;-76
2022/07/12 08:22:21;;;;;;;14.43;5.10;;;24.60;83.60;;;;;;5096276;28;20488;-75
2022/07/12 08:24:49;;;;;;;18.15;3.97;;;24.60;82.70;;;;;;5094270;28;20094;-75
2022/07/12 08:27:17;;;;;;;12.07;5.78;;;24.70;82.90;;;;;;5097911;28;20466;-74
2022/07/12 08:29:46;;;;;;;86.45;11.32;;;24.90;82.50;;;;;;5076626;28;20036;-75
2022/07/12 08:32:13;;;;;;;12.05;4.65;;;24.90;80.50;;;;;;5077511;28;20046;-75
2022/07/12 08:34:41;;;;;;;9.00;2.80;;;25.10;79.80;;;;;;5076969;28;20135;-74
2022/07/12 08:37:08;;;;;;;8.07;4.45;;;25.10;78.10;;;;;;5081134;28;20044;-75
2022/07/12 08:39:35;;;;;;;6.10;2.95;;;25.30;78.00;;;;;;5077279;28;20052;-75
2022/07/12 08:42:04;;;;;;;8.02;3.40;;;25.20;76.70;;;;;;5064800;28;20053;-75
2022/07/12 08:44:32;;;;;;;5.47;2.60;;;25.10;77.10;;;;;;5086896;28;20094;-74
2022/07/12 08:47:01;;;;;;;12.30;4.40;;;24.90;75.30;;;;;;5059537;28;20072;-75
2022/07/12 08:49:28;;;;;;;8.45;4.38;;;25.10;76.50;;;;;;5077360;28;20040;-75
2022/07/12 08:51:55;;;;;;;10.73;4.57;;;25.00;76.00;;;;;;5077153;28;20064;-75
2022/07/12 08:54:22;;;;;;;8.45;4.22;;;25.20;75.90;;;;;;5077560;28;20119;-74
2022/07/12 08:56:50;;;;;;;6.80;2.95;;;25.60;73.80;;;;;;5076841;28;20475;-75
2022/07/12 08:59:19;;;;;;;12.18;3.13;;;25.60;71.80;;;;;;5058919;28;20056;-74
2022/07/12 09:01:49;;;;;;;28.90;5.10;;;25.70;71.60;;;;;;5079355;28;20048;-74
2022/07/12 09:04:19;;;;;;;7.47;4.50;;;26.00;72.30;;;;;;5093330;28;20048;-75
2022/07/12 09:06:47;;;;;;;8.07;3.30;;;25.90;70.40;;;;;;5093419;28;20094;-75
2022/07/12 09:09:28;;;;;;;8.07;3.33;;;25.70;70.00;;;;;;5095343;28;20070;-74
2022/07/12 09:11:55;;;;;;;8.48;4.05;;;25.80;71.70;;;;;;5096844;28;20044;-74
2022/07/12 09:14:23;;;;;;;7.25;2.38;;;26.10;67.80;;;;;;5066512;28;20066;-75
2022/07/12 09:17:04;;;;;;;8.30;3.45;;;26.40;65.00;;;;;;5078298;28;20086;-75
2022/07/12 09:19:33;;;;;;;12.73;4.10;;;26.80;65.30;;;;;;5083822;28;20510;-76
2022/07/12 09:22:01;;;;;;;18.25;11.73;;;26.60;66.30;;;;;;5098278;28;20041;-75
2022/07/12 09:24:29;;;;;;;10.82;4.80;;;26.30;66.40;;;;;;5098443;28;20051;-75
2022/07/12 09:27:01;;;;;;;463.48;86.47;;;25.80;67.70;;;;;;5098500;28;20097;-76
2022/07/12 09:29:28;;;;;;;11.85;6.60;;;25.20;68.10;;;;;;5098437;28;20044;-76
2022/07/12 09:37:42;;;;;;;13.05;5.32;;;25.10;69.00;;;;;;5078876;28;20420;-74
2022/07/12 09:40:11;;;;;;;13.57;5.75;;;25.40;68.30;;;;;;5086684;28;20045;-74
2022/07/12 09:42:40;;;;;;;10.10;4.15;;;25.50;67.20;;;;;;5104772;22;20128;-70
2022/07/12 09:45:09;;;;;;;10.27;3.92;;;25.80;67.20;;;;;;5067941;28;20517;-72
2022/07/12 09:47:37;;;;;;;8.60;3.40;;;25.70;67.00;;;;;;5071474;28;20101;-71
2022/07/12 09:50:07;;;;;;;7.38;3.55;;;25.60;66.70;;;;;;5074888;28;20450;-70
2022/07/12 09:52:39;;;;;;;11.00;4.95;;;25.40;67.90;;;;;;5104263;28;20122;-70
2022/07/12 09:55:10;;;;;;;4.50;2.50;;;25.50;68.60;;;;;;5114368;28;20116;-70
2022/07/12 09:57:40;;;;;;;10.43;4.35;;;25.10;68.90;;;;;;5114043;28;20051;-70
2022/07/12 10:00:11;;;;;;;7.05;3.35;;;25.50;68.80;;;;;;5096254;28;20100;-71
2022/07/12 10:02:41;;;;;;;9.50;3.33;;;25.80;66.90;;;;;;5114783;28;20089;-70
2022/07/12 10:05:11;;;;;;;7.60;3.60;;;26.20;65.90;;;;;;5096679;28;20071;-70
2022/07/12 10:07:39;;;;;;;11.40;4.30;;;26.50;65.10;;;;;;5115498;28;20096;-70
2022/07/12 10:10:07;;;;;;;9.52;3.50;;;26.90;64.60;;;;;;5116789;27;20494;-71
2022/07/12 10:12:36;;;;;;;8.10;4.82;;;27.10;64.60;;;;;;5119072;28;20069;-71
2022/07/12 10:15:05;;;;;;;9.75;4.57;;;27.00;64.70;;;;;;5102362;28;20070;-70
2022/07/12 10:17:35;;;;;;;13.20;7.38;;;26.70;64.40;;;;;;5126091;28;20115;-70
2022/07/12 10:20:17;;;;;;;7.35;3.63;;;26.50;64.70;;;;;;5132511;28;20091;-71
2022/07/12 10:22:45;;;;;;;10.82;3.05;;;26.10;64.00;;;;;;5131079;28;20036;-70
2022/07/12 10:25:33;;;;;;;10.35;5.65;;;25.70;65.30;;;;;;5118268;28;20423;-71
2022/07/12 10:28:00;;;;;;;8.50;2.90;;;25.50;66.30;;;;;;5102465;28;20118;-71
2022/07/12 10:30:29;;;;;;;5.20;2.80;;;25.60;66.50;;;;;;5114663;28;20044;-70
2022/07/12 10:32:58;;;;;;;13.25;6.53;;;25.70;64.80;;;;;;5114178;28;20047;-70
2022/07/12 10:35:29;;;;;;;7.13;3.42;;;26.00;65.60;;;;;;5114366;28;20043;-71
2022/07/12 10:38:20;;;;;;;5.22;2.58;;;25.90;65.10;;;;;;5114472;28;20047;-71
2022/07/12 10:40:51;;;;;;;7.40;3.75;;;25.60;65.60;;;;;;5095961;28;20047;-70
2022/07/12 10:44:04;;;;;;;11.73;4.70;;;25.30;66.50;;;;;;5114110;28;20064;-71
2022/07/12 10:46:23;;;;;;;8.07;3.22;;;25.40;66.70;;;;;;5111336;28;20354;-71
2022/07/12 10:48:51;;;;;;;6.45;3.35;;;25.50;67.00;;;;;;5094156;28;20402;-70
2022/07/12 10:51:20;;;;;;;5.75;3.20;;;25.40;67.90;;;;;;5094631;28;20086;-69
2022/07/12 10:53:50;;;;;;;5.30;2.15;;;25.40;68.30;;;;;;5104571;28;20059;-70
2022/07/12 10:56:20;;;;;;;5.10;2.25;;;25.40;67.60;;;;;;5113881;28;20048;-70
2022/07/12 10:58:49;;;;;;;9.00;4.90;;;25.60;67.50;;;;;;5114152;28;20039;-70
2022/07/12 11:01:20;;;;;;;8.73;4.28;;;25.80;67.70;;;;;;5113902;28;20383;-72
2022/07/12 11:03:50;;;;;;;6.57;3.88;;;26.30;67.70;;;;;;5113964;28;20048;-70
2022/07/12 11:06:19;;;;;;;13.85;5.47;;;26.40;67.70;;;;;;5095290;28;20064;-71
2022/07/12 11:09:01;;;;;;;9.25;4.38;;;26.20;65.30;;;;;;5114017;28;20122;-71
2022/07/12 11:11:29;;;;;;;10.68;4.88;;;26.30;65.70;;;;;;5114114;28;20039;-70
2022/07/12 11:13:58;;;;;;;5.82;3.08;;;26.30;66.10;;;;;;5112907;28;20171;-71
2022/07/12 11:16:26;;;;;;;5.63;3.10;;;26.20;66.80;;;;;;5108095;28;20131;-71
2022/07/12 11:18:55;;;;;;;7.10;4.68;;;26.30;67.20;;;;;;5106341;28;20035;-70
2022/07/12 11:21:24;;;;;;;6.40;4.55;;;26.60;66.00;;;;;;5113796;27;20067;-70
2022/07/12 11:23:52;;;;;;;10.88;6.10;;;26.70;66.00;;;;;;5113316;28;20089;-71
2022/07/12 11:26:20;;;;;;;4.63;2.72;;;26.60;64.50;;;;;;5113095;28;20123;-71
2022/07/12 11:28:48;;;;;;;5.90;3.13;;;26.30;63.90;;;;;;5113649;28;20069;-70
2022/07/12 11:31:17;;;;;;;3.58;2.10;;;25.90;64.70;;;;;;5103646;28;20092;-71
2022/07/12 11:33:46;;;;;;;8.63;3.25;;;25.50;65.40;;;;;;5112877;28;20115;-71
2022/07/12 11:36:15;;;;;;;5.05;3.00;;;25.60;66.80;;;;;;5113416;28;20061;-69
2022/07/12 11:38:45;;;;;;;6.30;4.38;;;26.00;66.10;;;;;;5113642;28;20039;-71
2022/07/12 11:41:14;;;;;;;11.13;6.45;;;26.60;65.00;;;;;;5112929;28;20035;-70
2022/07/12 11:43:41;;;;;;;6.18;2.75;;;26.90;64.50;;;;;;5112555;28;20044;-70
2022/07/12 11:46:10;;;;;;;8.82;3.13;;;27.30;63.20;;;;;;5106894;28;20435;-71
2022/07/12 11:48:38;;;;;;;6.22;3.90;;;27.10;62.70;;;;;;5092369;28;20051;-70
2022/07/12 11:51:07;;;;;;;7.30;3.65;;;27.40;63.20;;;;;;5089981;28;20043;-71
2022/07/12 11:53:36;;;;;;;8.55;3.15;;;27.50;62.40;;;;;;5109515;28;20115;-70
2022/07/12 11:56:06;;;;;;;4.97;3.00;;;27.40;61.70;;;;;;5093223;28;20047;-69
2022/07/12 11:58:37;;;;;;;8.23;3.38;;;26.80;63.10;;;;;;5091730;28;20040;-70
2022/07/12 12:01:06;;;;;;;7.63;2.53;;;26.80;63.60;;;;;;5094708;28;20036;-70
2022/07/12 12:03:44;;;;;;;5.55;2.30;;;26.00;63.00;;;;;;5113018;28;20059;-70
2022/07/12 12:06:11;;;;;;;5.25;2.20;;;26.00;63.70;;;;;;5115190;28;20460;-70
2022/07/12 12:08:38;;;;;;;4.28;2.38;;;26.30;63.00;;;;;;5117555;28;20063;-71
2022/07/12 12:11:07;;;;;;;4.55;2.20;;;26.50;62.50;;;;;;5117188;27;20048;-70
2022/07/12 12:13:34;;;;;;;4.57;2.25;;;26.70;62.50;;;;;;5098357;28;20042;-70
2022/07/12 12:16:04;;;;;;;6.88;2.45;;;27.10;61.90;;;;;;5116862;28;20115;-69
2022/07/12 12:18:34;;;;;;;3.45;1.50;;;26.90;61.40;;;;;;5117376;28;20088;-70
2022/07/12 12:21:03;;;;;;;3.53;1.73;;;26.60;61.50;;;;;;5104982;28;20092;-70
2022/07/12 12:23:30;;;;;;;3.80;1.92;;;25.90;62.40;;;;;;5096470;28;20562;-70
2022/07/12 12:26:20;;;;;;;4.20;1.85;;;25.90;62.80;;;;;;5096882;28;20048;-70
2022/07/12 12:28:49;;;;;;;8.35;5.22;;;25.90;63.60;;;;;;5114836;28;20040;-70
2022/07/12 12:31:19;;;;;;;8.27;2.90;;;26.20;63.70;;;;;;5105832;28;20052;-70
2022/07/12 12:33:47;;;;;;;4.60;1.40;;;26.40;62.40;;;;;;5111632;28;20494;-70
2022/07/12 12:36:17;;;;;;;4.00;1.70;;;26.50;62.60;;;;;;5098620;28;20075;-70
2022/07/12 12:38:50;;;;;;;6.25;1.60;;;26.20;63.50;;;;;;5116822;28;20054;-70
2022/07/12 12:41:22;;;;;;;6.20;2.42;;;25.80;64.50;;;;;;5116843;28;20065;-71
2022/07/12 12:43:57;;;;;;;3.53;1.90;;;25.80;65.80;;;;;;5116009;28;20047;-71
2022/07/12 12:46:43;;;;;;;2.83;1.77;;;26.20;65.00;;;;;;5117884;28;20585;-71
2022/07/12 12:49:11;;;;;;;4.82;1.60;;;26.20;63.10;;;;;;5102280;28;20058;-70
2022/07/12 12:51:52;;;;;;;5.15;1.75;;;25.90;63.50;;;;;;5107241;28;20051;-69
2022/07/12 12:54:32;;;;;;;3.58;2.40;;;25.70;64.50;;;;;;5107390;28;20049;-70
2022/07/12 12:57:02;;;;;;;5.70;2.90;;;25.90;64.40;;;;;;5116554;28;20398;-70
2022/07/12 12:59:29;;;;;;;7.45;3.88;;;25.90;64.00;;;;;;5097948;28;20383;-71
2022/07/12 13:01:57;;;;;;;5.50;2.53;;;25.80;64.10;;;;;;5112983;28;20047;-71
2022/07/12 13:04:28;;;;;;;7.72;3.30;;;25.80;63.40;;;;;;5115567;28;20193;-71
2022/07/12 13:06:55;;;;;;;9.75;5.50;;;25.70;63.40;;;;;;5115835;28;20040;-71